createdAt,value
2018-08-23T00:00:45.935Z,22.06
2018-08-23T00:03:20.600Z,22.07
2018-08-23T00:05:52.298Z,22.20
2018-08-23T00:08:22.744Z,22.18
2018-08-23T00:10:53.206Z,22.12
2018-08-23T00:13:24.071Z,21.97
2018-08-23T00:15:53.622Z,22.02
2018-08-23T00:18:23.144Z,21.99
2018-08-23T00:20:52.601Z,22.05
2018-08-23T00:23:22.172Z,22.05
2018-08-23T00:25:51.466Z,22.05
2018-08-23T00:28:20.903Z,22.06
2018-08-23T00:30:51.059Z,22.03
2018-08-23T00:33:20.386Z,22.03
2018-08-23T00:35:49.690Z,22.06
2018-08-23T00:38:19.140Z,22.10
2018-08-23T00:40:48.878Z,22.07
2018-08-23T00:43:18.367Z,22.04
2018-08-23T00:45:47.578Z,22.02
2018-08-23T00:48:16.788Z,21.99
2018-08-23T00:50:54.706Z,21.97
2018-08-23T00:53:24.215Z,22.00
2018-08-23T00:56:10.683Z,21.93
2018-08-23T00:58:41.710Z,21.86
2018-08-23T01:01:12.878Z,21.83
2018-08-23T01:03:42.918Z,21.59
2018-08-23T01:06:13.003Z,21.47
2018-08-23T01:08:42.287Z,21.52
2018-08-23T01:11:12.031Z,21.52
2018-08-23T01:13:41.894Z,21.68
2018-08-23T01:16:13.498Z,21.72
2018-08-23T01:18:43.311Z,21.73
2018-08-23T01:21:12.878Z,21.72
2018-08-23T01:23:43.543Z,21.70
2018-08-23T01:26:12.948Z,21.63
2018-08-23T01:28:42.434Z,21.66
2018-08-23T01:31:25.342Z,21.58
2018-08-23T01:33:57.360Z,21.52
2018-08-23T01:36:31.881Z,21.33
2018-08-23T01:39:05.408Z,21.33
2018-08-23T01:41:34.921Z,21.30
2018-08-23T01:44:04.459Z,21.29
2018-08-23T01:46:39.243Z,21.32
2018-08-23T01:49:09.712Z,21.32
2018-08-23T01:51:39.041Z,21.29
2018-08-23T01:54:08.596Z,21.24
2018-08-23T01:56:38.306Z,21.29
2018-08-23T01:59:07.855Z,21.35
2018-08-23T02:01:37.139Z,21.33
2018-08-23T02:04:07.071Z,21.37
2018-08-23T02:06:36.944Z,21.44
2018-08-23T02:09:08.203Z,21.37
2018-08-23T02:11:37.970Z,21.37
2018-08-23T02:14:07.500Z,21.46
2018-08-23T02:16:48.247Z,21.35
2018-08-23T02:19:17.572Z,21.36
2018-08-23T02:21:47.091Z,21.31
2018-08-23T02:24:20.774Z,21.24
2018-08-23T02:26:50.190Z,21.17
2018-08-23T02:29:29.414Z,20.95
2018-08-23T02:31:58.816Z,20.94
2018-08-23T02:34:32.449Z,20.87
2018-08-23T02:37:01.779Z,20.76
2018-08-23T02:39:31.215Z,20.67
2018-08-23T02:42:00.932Z,20.77
2018-08-23T02:44:30.215Z,20.74
2018-08-23T02:47:00.393Z,20.68
2018-08-23T02:49:30.183Z,20.66
2018-08-23T02:51:59.827Z,20.62
2018-08-23T02:54:29.270Z,20.61
2018-08-23T02:56:59.826Z,20.54
2018-08-23T02:59:30.170Z,20.57
2018-08-23T03:01:59.442Z,20.41
2018-08-23T03:04:29.627Z,20.37
2018-08-23T03:07:04.959Z,20.37
2018-08-23T03:09:36.583Z,20.41
2018-08-23T03:12:11.498Z,20.49
2018-08-23T03:14:41.604Z,20.42
2018-08-23T03:17:24.478Z,20.24
2018-08-23T03:20:02.613Z,20.17
2018-08-23T03:22:33.216Z,20.12
2018-08-23T03:25:04.331Z,20.04
2018-08-23T03:27:33.824Z,20.16
2018-08-23T03:30:04.410Z,20.09
2018-08-23T03:32:33.648Z,20.15
2018-08-23T03:35:03.178Z,20.22
2018-08-23T03:37:32.416Z,20.22
2018-08-23T03:40:01.734Z,20.22
2018-08-23T03:42:31.222Z,20.16
2018-08-23T03:45:01.754Z,20.13
2018-08-23T03:47:38.102Z,20.20
2018-08-23T03:50:09.168Z,20.06
2018-08-23T03:52:39.383Z,20.05
2018-08-23T03:55:10.775Z,19.91
2018-08-23T03:57:45.321Z,19.98
2018-08-23T04:00:14.789Z,19.87
2018-08-23T04:02:44.262Z,19.77
2018-08-23T04:05:18.806Z,19.81
2018-08-23T04:07:48.207Z,19.82
2018-08-23T04:10:17.711Z,19.69
2018-08-23T04:12:47.195Z,19.77
2018-08-23T04:15:24.159Z,19.70
2018-08-23T04:17:53.644Z,19.73
2018-08-23T04:20:23.780Z,19.71
2018-08-23T04:22:53.695Z,19.72
2018-08-23T04:25:22.967Z,19.63
2018-08-23T04:27:52.644Z,19.63
2018-08-23T04:30:22.163Z,19.64
2018-08-23T04:32:52.134Z,19.62
2018-08-23T04:35:25.008Z,19.52
2018-08-23T04:37:54.517Z,19.55
2018-08-23T04:40:24.337Z,19.49
2018-08-23T04:42:54.290Z,19.36
2018-08-23T04:45:24.970Z,19.32
2018-08-23T04:48:06.143Z,19.29
2018-08-23T04:50:36.137Z,19.35
2018-08-23T04:53:05.375Z,19.37
2018-08-23T04:55:34.594Z,19.33
2018-08-23T04:58:04.784Z,19.31
2018-08-23T05:00:34.442Z,19.38
2018-08-23T05:03:03.990Z,19.39
2018-08-23T05:05:33.696Z,19.44
2018-08-23T05:08:03.176Z,19.46
2018-08-23T05:10:32.635Z,19.45
2018-08-23T05:13:01.952Z,19.49
2018-08-23T05:15:31.444Z,19.37
2018-08-23T05:18:00.967Z,19.37
2018-08-23T05:20:30.554Z,19.38
2018-08-23T05:23:03.494Z,19.51
2018-08-23T05:25:32.957Z,19.66
2018-08-23T05:28:20.694Z,19.66
2018-08-23T05:30:50.723Z,19.65
2018-08-23T05:33:21.515Z,19.69
2018-08-23T05:35:50.890Z,19.72
2018-08-23T05:38:21.102Z,19.65
2018-08-23T05:40:55.459Z,19.70
2018-08-23T05:43:25.891Z,19.92
2018-08-23T05:45:57.309Z,20.01
2018-08-23T05:48:29.656Z,20.16
2018-08-23T05:51:08.406Z,20.14
2018-08-23T05:53:50.739Z,20.15
2018-08-23T05:56:20.599Z,20.16
2018-08-23T05:58:49.999Z,20.22
2018-08-23T06:01:19.488Z,20.32
2018-08-23T06:03:49.182Z,20.45
2018-08-23T06:06:18.678Z,20.43
2018-08-23T06:08:50.336Z,20.58
2018-08-23T06:11:19.788Z,20.74
2018-08-23T06:13:49.290Z,20.83
2018-08-23T06:16:18.554Z,20.94
2018-08-23T06:18:48.085Z,20.79
2018-08-23T06:21:17.547Z,20.75
2018-08-23T06:23:55.120Z,20.84
2018-08-23T06:26:37.522Z,20.88
2018-08-23T06:29:07.226Z,20.66
2018-08-23T06:31:43.774Z,20.72
2018-08-23T06:34:13.141Z,21.12
2018-08-23T06:36:46.685Z,21.33
2018-08-23T06:39:16.074Z,21.38
2018-08-23T06:41:45.609Z,21.45
2018-08-23T06:44:15.074Z,21.42
2018-08-23T06:46:45.299Z,21.43
2018-08-23T06:49:14.519Z,21.59
2018-08-23T06:51:44.047Z,21.74
2018-08-23T06:54:13.498Z,21.68
2018-08-23T06:56:42.987Z,21.34
2018-08-23T06:59:12.694Z,21.16
2018-08-23T07:01:47.832Z,21.37
2018-08-23T07:04:17.226Z,21.38
2018-08-23T07:06:46.834Z,21.36
2018-08-23T07:09:17.659Z,21.74
2018-08-23T07:11:47.026Z,21.82
2018-08-23T07:14:17.475Z,21.65
2018-08-23T07:16:50.567Z,22.03
2018-08-23T07:19:32.338Z,21.96
2018-08-23T07:22:03.300Z,21.68
2018-08-23T07:24:43.213Z,21.96
2018-08-23T07:27:14.209Z,21.82
2018-08-23T07:29:45.639Z,21.98
2018-08-23T07:32:19.214Z,22.19
2018-08-23T07:35:01.239Z,22.62
2018-08-23T07:37:32.376Z,22.59
2018-08-23T07:40:06.811Z,22.25
2018-08-23T07:42:36.903Z,22.24
2018-08-23T07:45:07.454Z,22.28
2018-08-23T07:47:43.211Z,22.66
2018-08-23T07:50:12.650Z,22.72
2018-08-23T07:52:45.299Z,23.07
2018-08-23T07:55:14.701Z,23.26
2018-08-23T07:57:45.083Z,23.33
2018-08-23T08:00:38.102Z,23.37
2018-08-23T08:03:08.486Z,23.91
2018-08-23T08:05:40.759Z,24.58
2018-08-23T08:08:11.599Z,23.61
2018-08-23T08:10:42.972Z,23.80
2018-08-23T08:13:12.582Z,23.55
2018-08-23T08:15:42.146Z,23.54
2018-08-23T08:18:23.581Z,24.41
2018-08-23T08:21:04.018Z,24.40
2018-08-23T08:23:33.909Z,24.46
2018-08-23T08:26:03.275Z,24.86
2018-08-23T08:28:32.943Z,26.33
2018-08-23T08:31:02.946Z,25.11
2018-08-23T08:33:36.819Z,25.35
2018-08-23T08:36:07.038Z,26.85
2018-08-23T08:38:36.974Z,28.38
2018-08-23T08:41:06.345Z,29.72
2018-08-23T08:43:35.708Z,27.22
2018-08-23T08:46:05.036Z,27.48
2018-08-23T08:48:35.421Z,27.19
2018-08-23T08:51:20.944Z,25.96
2018-08-23T08:53:50.213Z,25.95
2018-08-23T08:56:59.003Z,26.28
2018-08-23T08:59:31.078Z,26.82
2018-08-23T09:02:01.138Z,27.10
2018-08-23T09:04:36.126Z,27.32
2018-08-23T09:07:05.648Z,27.03
2018-08-23T09:09:39.429Z,25.81
2018-08-23T09:12:11.108Z,25.41
2018-08-23T09:14:42.128Z,25.75
2018-08-23T09:17:27.988Z,26.18
2018-08-23T09:20:02.219Z,26.93
2018-08-23T09:22:36.658Z,26.85
2018-08-23T09:25:08.415Z,25.48
2018-08-23T09:27:37.902Z,25.77
2018-08-23T09:30:13.086Z,25.51
2018-08-23T09:32:42.613Z,26.36
2018-08-23T09:35:12.310Z,27.29
2018-08-23T09:37:42.002Z,28.54
2018-08-23T09:40:11.363Z,29.60
2018-08-23T09:42:40.643Z,28.29
2018-08-23T09:45:13.304Z,29.12
2018-08-23T09:47:43.180Z,29.88
2018-08-23T09:50:12.719Z,29.71
2018-08-23T09:52:44.227Z,29.75
2018-08-23T09:55:15.814Z,30.16
2018-08-23T09:57:45.871Z,29.65
2018-08-23T10:00:19.543Z,29.98
2018-08-23T10:04:59.931Z,28.43
2018-08-23T10:07:34.479Z,27.84
2018-08-23T10:10:09.308Z,29.09
2018-08-23T10:12:43.887Z,28.82
2018-08-23T10:15:18.665Z,29.04
2018-08-23T10:17:53.463Z,28.60
2018-08-23T10:20:28.006Z,29.90
2018-08-23T10:23:16.071Z,31.16
2018-08-23T10:25:47.659Z,31.74
2018-08-23T10:28:18.853Z,31.77
2018-08-23T10:30:48.857Z,31.93
2018-08-23T10:33:18.710Z,30.30
2018-08-23T10:35:52.399Z,31.88
2018-08-23T10:38:23.440Z,32.52
2018-08-23T10:40:54.559Z,32.38
2018-08-23T10:43:29.380Z,32.00
2018-08-23T10:46:02.931Z,33.59
2018-08-23T10:48:32.526Z,33.35
2018-08-23T10:51:02.089Z,31.59
2018-08-23T10:53:32.725Z,31.88
2018-08-23T10:56:02.023Z,32.31
2018-08-23T10:58:31.527Z,31.07
2018-08-23T11:01:01.246Z,31.39
2018-08-23T11:03:30.906Z,29.93
2018-08-23T11:06:00.467Z,29.94
2018-08-23T11:08:36.089Z,29.94
2018-08-23T11:11:10.894Z,30.47
2018-08-23T11:13:48.156Z,30.74
2018-08-23T11:16:23.791Z,30.75
2018-08-23T11:18:58.575Z,30.87
2018-08-23T11:21:27.811Z,30.98
2018-08-23T11:23:57.290Z,31.14
2018-08-23T11:26:26.788Z,31.97
2018-08-23T11:28:56.112Z,32.10
2018-08-23T11:31:29.919Z,32.32
2018-08-23T11:34:00.007Z,31.36
2018-08-23T11:36:29.507Z,32.27
2018-08-23T11:38:58.745Z,32.33
2018-08-23T11:41:28.115Z,33.34
2018-08-23T11:43:57.730Z,34.68
2018-08-23T11:46:27.813Z,35.15
2018-08-23T11:48:57.323Z,34.35
2018-08-23T11:51:26.781Z,34.97
2018-08-23T11:53:56.065Z,34.50
2018-08-23T11:56:25.370Z,34.62
2018-08-23T11:58:55.085Z,34.58
2018-08-23T12:01:24.550Z,32.29
2018-08-23T12:03:53.910Z,33.78
2018-08-23T12:06:23.410Z,33.68
2018-08-23T12:08:52.855Z,32.28
2018-08-23T12:11:22.191Z,32.37
2018-08-23T12:13:52.130Z,32.39
2018-08-23T12:16:21.819Z,31.47
2018-08-23T12:18:51.321Z,31.23
2018-08-23T12:21:21.111Z,31.63
2018-08-23T12:23:50.521Z,31.75
2018-08-23T12:26:20.165Z,31.95
2018-08-23T12:28:54.693Z,31.99
2018-08-23T12:31:24.428Z,31.62
2018-08-23T12:33:53.937Z,31.76
2018-08-23T12:36:28.828Z,31.52
2018-08-23T12:39:03.294Z,31.93
2018-08-23T12:41:38.926Z,31.96
2018-08-23T12:44:09.072Z,32.03
2018-08-23T12:46:38.447Z,31.67
2018-08-23T12:49:07.761Z,31.61
2018-08-23T12:51:37.194Z,31.32
2018-08-23T12:54:07.193Z,31.14
2018-08-23T12:56:36.619Z,31.33
2018-08-23T12:59:07.301Z,30.89
2018-08-23T13:01:37.232Z,30.99
2018-08-23T13:04:06.913Z,31.18
2018-08-23T13:06:36.458Z,31.25
2018-08-23T13:09:06.804Z,31.19
2018-08-23T13:11:36.319Z,31.49
2018-08-23T13:14:05.827Z,31.03
2018-08-23T13:16:35.291Z,31.74
2018-08-23T13:19:04.851Z,32.09
2018-08-23T13:21:34.109Z,31.64
2018-08-23T13:24:03.907Z,31.78
2018-08-23T13:26:38.941Z,31.32
2018-08-23T13:29:08.359Z,31.42
2018-08-23T13:31:37.892Z,30.88
2018-08-23T13:34:07.454Z,31.06
2018-08-23T13:36:37.373Z,31.47
2018-08-23T13:39:10.482Z,30.50
2018-08-23T13:41:40.200Z,31.31
2018-08-23T13:44:09.766Z,31.03
2018-08-23T13:46:40.050Z,31.65
2018-08-23T13:49:09.513Z,31.53
2018-08-23T13:51:39.210Z,31.04
2018-08-23T13:54:08.455Z,31.19
2018-08-23T13:56:37.854Z,30.96
2018-08-23T13:59:07.755Z,31.00
2018-08-23T14:01:37.058Z,30.78
2018-08-23T14:04:06.960Z,30.49
2018-08-23T14:06:36.478Z,29.84
2018-08-23T14:09:06.898Z,29.90
2018-08-23T14:11:36.318Z,29.47
2018-08-23T14:14:05.863Z,29.50
2018-08-23T14:16:35.350Z,29.80
2018-08-23T14:19:05.232Z,29.49
2018-08-23T14:21:34.747Z,29.95
2018-08-23T14:24:04.238Z,30.35
2018-08-23T14:26:33.780Z,30.33
2018-08-23T14:29:03.276Z,29.74
2018-08-23T14:31:32.763Z,29.96
2018-08-23T14:34:02.263Z,30.20
2018-08-23T14:36:32.250Z,30.00
2018-08-23T14:39:01.651Z,29.69
2018-08-23T14:41:31.200Z,29.62
2018-08-23T14:44:00.686Z,29.59
2018-08-23T14:46:36.096Z,29.70
2018-08-23T14:49:05.636Z,29.29
2018-08-23T14:51:34.971Z,29.75
2018-08-23T14:54:08.634Z,29.63
2018-08-23T14:56:43.285Z,29.65
2018-08-23T14:59:13.090Z,29.89
2018-08-23T15:01:42.575Z,30.20
2018-08-23T15:04:12.097Z,30.08
2018-08-23T15:06:41.588Z,30.10
2018-08-23T15:09:11.616Z,30.21
2018-08-23T15:11:40.972Z,30.03
2018-08-23T15:14:10.595Z,29.87
2018-08-23T15:16:40.077Z,30.17
2018-08-23T15:19:09.532Z,29.70
2018-08-23T15:21:39.051Z,29.66
2018-08-23T15:24:08.779Z,29.73
2018-08-23T15:26:38.398Z,30.05
2018-08-23T15:29:12.192Z,30.08
2018-08-23T15:31:43.372Z,30.01
2018-08-23T15:34:13.149Z,30.29
2018-08-23T15:36:42.522Z,30.16
2018-08-23T15:39:14.203Z,30.45
2018-08-23T15:41:43.982Z,30.01
2018-08-23T15:44:14.238Z,30.57
2018-08-23T15:46:46.547Z,30.48
2018-08-23T15:49:16.727Z,30.20
2018-08-23T15:51:46.638Z,29.92
2018-08-23T15:54:18.236Z,30.25
2018-08-23T15:56:48.119Z,29.54
2018-08-23T15:59:17.810Z,29.07
2018-08-23T16:01:47.103Z,29.09
2018-08-23T16:04:16.619Z,29.03
2018-08-23T16:06:46.085Z,28.89
2018-08-23T16:09:15.626Z,28.83
2018-08-23T16:11:45.312Z,28.82
2018-08-23T16:14:14.798Z,28.61
2018-08-23T16:16:49.615Z,28.26
2018-08-23T16:19:24.419Z,28.26
2018-08-23T16:21:55.656Z,28.41
2018-08-23T16:24:26.758Z,28.27
2018-08-23T16:27:01.264Z,28.07
2018-08-23T16:29:30.716Z,28.18
2018-08-23T16:32:00.253Z,28.16
2018-08-23T16:34:30.058Z,28.23
2018-08-23T16:36:59.265Z,28.19
2018-08-23T16:39:28.723Z,28.00
2018-08-23T16:41:58.226Z,27.81
2018-08-23T16:44:28.147Z,27.62
2018-08-23T16:46:57.650Z,27.60
2018-08-23T16:49:27.564Z,27.49
2018-08-23T16:51:57.035Z,27.63
2018-08-23T16:54:26.854Z,27.41
2018-08-23T16:56:56.051Z,27.24
2018-08-23T16:59:25.435Z,27.33
2018-08-23T17:01:54.695Z,27.31
2018-08-23T17:04:54.883Z,27.38
2018-08-23T17:07:24.582Z,27.34
2018-08-23T17:09:53.898Z,27.15
2018-08-23T17:12:23.134Z,27.22
2018-08-23T17:14:52.480Z,27.29
2018-08-23T17:17:29.124Z,27.35
2018-08-23T17:19:58.439Z,27.21
2018-08-23T17:22:29.159Z,27.38
2018-08-23T17:24:59.000Z,27.45
2018-08-23T17:27:29.622Z,27.25
2018-08-23T17:29:58.987Z,27.11
2018-08-23T17:32:28.420Z,27.29
2018-08-23T17:34:57.763Z,27.04
2018-08-23T17:37:27.246Z,26.81
2018-08-23T17:39:57.035Z,26.82
2018-08-23T17:42:31.487Z,27.02
2018-08-23T17:45:00.963Z,26.52
2018-08-23T17:47:30.985Z,26.40
2018-08-23T17:50:00.944Z,26.41
2018-08-23T17:52:30.449Z,26.39
2018-08-23T17:54:59.975Z,26.29
2018-08-23T17:57:29.844Z,26.29
2018-08-23T17:59:59.369Z,26.03
2018-08-23T18:02:28.887Z,26.09
2018-08-23T18:04:58.343Z,26.13
2018-08-23T18:07:27.889Z,26.14
2018-08-23T18:09:57.342Z,26.00
2018-08-23T18:12:26.881Z,25.95
2018-08-23T18:14:56.221Z,25.99
2018-08-23T18:17:25.681Z,25.97
2018-08-23T18:19:54.902Z,25.93
2018-08-23T18:22:24.295Z,25.69
2018-08-23T18:24:53.778Z,25.60
2018-08-23T18:27:23.291Z,25.55
2018-08-23T18:29:52.829Z,25.34
2018-08-23T18:32:22.360Z,25.39
2018-08-23T18:34:51.787Z,25.28
2018-08-23T18:37:21.383Z,25.21
2018-08-23T18:39:50.793Z,25.10
2018-08-23T18:42:20.330Z,25.14
2018-08-23T18:44:49.611Z,25.08
2018-08-23T18:47:19.122Z,25.11
2018-08-23T18:49:48.666Z,25.09
2018-08-23T18:52:17.871Z,25.07
2018-08-23T18:54:47.438Z,24.58
2018-08-23T18:57:17.139Z,24.88
2018-08-23T18:59:46.662Z,24.71
2018-08-23T19:02:16.947Z,24.68
2018-08-23T19:04:46.466Z,24.65
2018-08-23T19:07:21.286Z,24.63
2018-08-23T19:09:54.818Z,24.67
2018-08-23T19:12:24.603Z,24.41
2018-08-23T19:14:53.919Z,24.45
2018-08-23T19:17:28.599Z,24.51
2018-08-23T19:19:58.123Z,24.52
2018-08-23T19:22:27.548Z,24.47
2018-08-23T19:24:57.146Z,24.46
2018-08-23T19:27:27.225Z,24.32
2018-08-23T19:29:56.694Z,24.35
2018-08-23T19:32:26.174Z,24.29
2018-08-23T19:34:55.707Z,24.23
2018-08-23T19:37:25.662Z,24.04
2018-08-23T19:39:55.328Z,24.04
2018-08-23T19:42:25.023Z,24.13
2018-08-23T19:44:57.275Z,24.10
2018-08-23T19:47:31.926Z,24.12
2018-08-23T19:50:03.054Z,24.10
2018-08-23T19:52:33.252Z,24.10
2018-08-23T19:55:02.580Z,24.05
2018-08-23T19:57:31.868Z,23.95
2018-08-23T20:00:01.423Z,23.85
2018-08-23T20:02:30.867Z,23.81
2018-08-23T20:05:00.603Z,23.76
2018-08-23T20:07:30.147Z,23.56
2018-08-23T20:09:59.966Z,23.62
2018-08-23T20:12:29.873Z,23.73
2018-08-23T20:14:59.635Z,23.77
2018-08-23T20:17:29.188Z,23.63
2018-08-23T20:19:58.830Z,23.65
2018-08-23T20:22:28.363Z,23.59
2018-08-23T20:24:57.615Z,23.46
2018-08-23T20:27:26.978Z,23.50
2018-08-23T20:29:56.462Z,23.39
2018-08-23T20:32:26.021Z,23.35
2018-08-23T20:34:55.466Z,23.18
2018-08-23T20:37:24.985Z,23.09
2018-08-23T20:39:54.496Z,23.03
2018-08-23T20:42:23.811Z,22.99
2018-08-23T20:44:53.291Z,22.99
2018-08-23T20:47:23.282Z,22.94
2018-08-23T20:49:52.557Z,23.00
2018-08-23T20:52:22.024Z,22.98
2018-08-23T20:54:51.517Z,23.09
2018-08-23T20:57:21.002Z,22.99
2018-08-23T20:59:50.232Z,22.99
2018-08-23T21:02:20.517Z,23.09
2018-08-23T21:04:50.168Z,22.94
2018-08-23T21:07:19.666Z,22.84
2018-08-23T21:09:49.644Z,22.87
2018-08-23T21:12:18.912Z,22.81
2018-08-23T21:14:48.636Z,22.79
2018-08-23T21:17:18.070Z,22.73
2018-08-23T21:19:47.403Z,22.78
2018-08-23T21:22:17.071Z,22.89
2018-08-23T21:24:46.418Z,22.84
2018-08-23T21:27:15.936Z,22.98
2018-08-23T21:29:45.396Z,22.95
2018-08-23T21:32:14.940Z,23.02
2018-08-23T21:34:44.405Z,22.89
2018-08-23T21:37:14.394Z,22.83
2018-08-23T21:39:43.827Z,22.93
2018-08-23T21:42:13.347Z,22.88
2018-08-23T21:44:42.839Z,22.90
2018-08-23T21:47:12.342Z,22.88
2018-08-23T21:49:41.862Z,22.86
2018-08-23T21:52:11.365Z,22.83
2018-08-23T21:54:40.866Z,22.82
2018-08-23T21:57:10.175Z,22.79
2018-08-23T21:59:39.652Z,22.82
2018-08-23T22:02:13.943Z,22.81
2018-08-23T22:04:48.471Z,22.82
2018-08-23T22:07:17.899Z,22.85
2018-08-23T22:09:52.898Z,22.88
2018-08-23T22:12:24.116Z,22.84
2018-08-23T22:14:54.762Z,22.85
2018-08-23T22:17:24.690Z,22.84
2018-08-23T22:19:54.346Z,22.95
2018-08-23T22:22:23.910Z,22.96
2018-08-23T22:24:53.611Z,22.95
2018-08-23T22:27:23.175Z,23.06
2018-08-23T22:29:52.870Z,23.07
2018-08-23T22:32:22.278Z,22.97
2018-08-23T22:34:51.955Z,22.89
2018-08-23T22:37:21.474Z,23.10
2018-08-23T22:39:50.787Z,23.09
2018-08-23T22:42:20.327Z,23.09
2018-08-23T22:44:49.812Z,23.10
2018-08-23T22:47:19.314Z,23.18
2018-08-23T22:49:48.605Z,23.06
2018-08-23T22:52:17.798Z,23.07
2018-08-23T22:54:47.391Z,22.89
2018-08-23T22:57:16.902Z,22.96
2018-08-23T22:59:46.430Z,22.99
2018-08-23T23:02:21.083Z,22.88
2018-08-23T23:04:50.344Z,22.90
2018-08-23T23:07:19.821Z,22.68
2018-08-23T23:09:49.171Z,22.78
2018-08-23T23:12:18.666Z,22.78
2018-08-23T23:14:48.157Z,22.78
2018-08-23T23:17:17.643Z,22.84
2018-08-23T23:19:47.010Z,22.87
2018-08-23T23:22:16.987Z,22.80
2018-08-23T23:24:51.550Z,22.68
2018-08-23T23:27:21.008Z,22.75
2018-08-23T23:29:50.489Z,22.86
2018-08-23T23:32:20.002Z,22.71
2018-08-23T23:34:49.503Z,22.71
2018-08-23T23:37:18.820Z,22.68
2018-08-23T23:39:48.295Z,22.57
2018-08-23T23:42:17.638Z,22.53
2018-08-23T23:44:47.734Z,22.59
2018-08-23T23:47:17.242Z,22.69
2018-08-23T23:49:46.783Z,22.60
2018-08-23T23:52:16.272Z,22.60
2018-08-23T23:54:45.759Z,22.49
2018-08-23T23:57:15.748Z,22.39
2018-08-23T23:59:45.193Z,22.30
